Time;durP1;ratioP1;P1;durP2;ratioP2;P2;SDS_P1;SDS_P2;PMS_P1;PMS_P2;Temp;Humidity;BMP_temperature;BMP_pressure;BME280_temperature;BME280_humidity;BME280_pressure;Samples;Min_cycle;Max_cycle;Signal;HPM_P1;HPM_P2
2022/11/23 00:00:37;;;;;;;9.68;9.18;;;;;;;-143.83;100.00;62900.06;4931821;29;20130;-74
2022/11/23 00:03:03;;;;;;;9.80;9.30;;;;;;;-143.83;100.00;62900.06;4924179;29;20039;-73
2022/11/23 00:05:29;;;;;;;10.18;9.68;;;;;;;-143.83;100.00;62900.06;4930190;29;20028;-73
2022/11/23 00:07:54;;;;;;;10.15;9.65;;;;;;;-143.83;100.00;62900.06;4932658;29;20030;-73
2022/11/23 00:10:20;;;;;;;9.93;9.43;;;;;;;-143.83;100.00;62900.06;4925613;29;20130;-73
2022/11/23 00:12:46;;;;;;;9.95;9.45;;;;;;;-143.83;100.00;62900.06;4928779;29;20033;-74
2022/11/23 00:15:13;;;;;;;9.88;9.38;;;;;;;-143.83;100.00;62900.06;4911424;29;20027;-73
2022/11/23 00:17:39;;;;;;;9.93;9.45;;;;;;;-143.83;100.00;62900.06;4910000;29;20039;-73
2022/11/23 00:20:07;;;;;;;10.98;10.38;;;;;;;-143.83;100.00;62900.06;4921590;29;20040;-73
2022/11/23 00:22:33;;;;;;;9.43;9.02;;;;;;;-143.83;100.00;62900.06;4929266;29;20503;-73
2022/11/23 00:24:58;;;;;;;10.30;9.80;;;;;;;-143.83;100.00;62900.06;4925305;29;20055;-73
2022/11/23 00:27:24;;;;;;;10.15;9.65;;;;;;;-143.83;100.00;62900.06;4909694;29;20262;-73
2022/11/23 00:29:49;;;;;;;11.02;10.43;;;;;;;-143.83;100.00;62900.06;4930407;29;20531;-72
2022/11/23 00:32:15;;;;;;;9.70;9.20;;;;;;;-143.83;100.00;62900.06;4926824;29;20028;-72
2022/11/23 00:34:40;;;;;;;9.30;8.90;;;;;;;-143.83;100.00;62900.06;4927052;29;20103;-72
2022/11/23 00:37:06;;;;;;;9.60;9.20;;;;;;;-143.83;100.00;62900.06;4916055;29;20031;-73
2022/11/23 00:39:33;;;;;;;9.73;9.23;;;;;;;-143.83;100.00;62900.06;4924158;29;20384;-73
2022/11/23 00:41:59;;;;;;;9.80;9.30;;;;;;;-143.83;100.00;62900.06;4932535;29;20547;-73
2022/11/23 00:44:24;;;;;;;9.40;9.00;;;;;;;-143.83;100.00;62900.06;4929243;29;20031;-73
2022/11/23 00:46:50;;;;;;;9.30;8.90;;;;;;;-143.83;100.00;62900.06;4928201;29;20436;-73
2022/11/23 00:49:15;;;;;;;9.90;9.40;;;;;;;-143.83;100.00;62900.06;4929237;29;20036;-73
2022/11/23 00:51:41;;;;;;;9.40;9.00;;;;;;;-143.83;100.00;62900.06;4926469;29;20111;-73
2022/11/23 00:54:06;;;;;;;10.00;9.50;;;;;;;-143.83;100.00;62900.06;4928565;29;20492;-73
2022/11/23 00:56:34;;;;;;;9.85;9.35;;;;;;;-143.83;100.00;62900.06;4931123;29;20118;-72
2022/11/23 00:59:01;;;;;;;9.80;9.30;;;;;;;-143.83;100.00;62900.06;4931355;29;20032;-73
2022/11/23 01:01:32;;;;;;;9.73;9.23;;;;;;;-143.83;100.00;62900.06;4923712;29;20231;-73
2022/11/23 01:03:59;;;;;;;10.10;9.60;;;;;;;-143.83;100.00;62900.06;4928635;29;20023;-74
2022/11/23 01:06:31;;;;;;;9.90;9.40;;;;;;;-143.83;100.00;62900.06;4926064;29;20067;-73
2022/11/23 01:08:59;;;;;;;9.63;9.13;;;;;;;-143.83;100.00;62900.06;4923386;29;20066;-73
2022/11/23 01:11:27;;;;;;;10.35;9.75;;;;;;;-143.83;100.00;62900.06;4910930;29;20036;-73
2022/11/23 01:13:53;;;;;;;9.40;9.00;;;;;;;-143.83;100.00;62900.06;4924073;29;20392;-73
2022/11/23 01:16:21;;;;;;;10.02;9.52;;;;;;;-143.83;100.00;62900.06;4912002;29;20131;-73
2022/11/23 01:18:47;;;;;;;9.57;9.18;;;;;;;-143.83;100.00;62900.06;4923976;29;20091;-73
2022/11/23 01:21:13;;;;;;;10.20;9.70;;;;;;;-143.83;100.00;62900.06;4926346;29;20437;-74
2022/11/23 01:23:38;;;;;;;9.93;9.43;;;;;;;-143.83;100.00;62900.06;4906652;29;20046;-72
2022/11/23 01:26:07;;;;;;;10.43;9.93;;;;;;;-143.83;100.00;62900.06;4920485;29;20048;-72
2022/11/23 01:28:33;;;;;;;9.77;9.27;;;;;;;-143.83;100.00;62900.06;4927750;29;20627;-72
2022/11/23 01:31:17;;;;;;;9.88;9.38;;;;;;;-143.83;100.00;62900.06;4924654;29;20083;-72
2022/11/23 01:33:43;;;;;;;10.20;9.65;;;;;;;-143.83;100.00;62900.06;4928715;29;20036;-72
2022/11/23 01:36:20;;;;;;;10.80;10.20;;;;;;;-143.83;100.00;62900.06;4913021;29;20034;-71
2022/11/23 01:38:49;;;;;;;10.30;9.80;;;;;;;-143.83;100.00;62900.06;4930061;29;20042;-72
2022/11/23 01:41:17;;;;;;;10.27;9.77;;;;;;;-143.83;100.00;62900.06;4927496;29;20044;-72
2022/11/23 01:43:43;;;;;;;9.93;9.43;;;;;;;-143.83;100.00;62900.06;4924007;29;20082;-71
2022/11/23 01:46:10;;;;;;;10.55;9.95;;;;;;;-143.83;100.00;62900.06;4908453;29;20499;-73
2022/11/23 01:48:56;;;;;;;9.45;9.05;;;;;;;-143.83;100.00;62900.06;4914116;29;20110;-74
2022/11/23 01:51:33;;;;;;;9.93;9.43;;;;;;;-143.83;100.00;62900.06;4925330;29;20403;-73
2022/11/23 01:54:45;;;;;;;10.63;10.02;;;;;;;-143.83;100.00;62900.06;4926122;29;20034;-73
2022/11/23 01:57:24;;;;;;;9.90;9.40;;;;;;;-143.83;100.00;62900.06;4917322;29;20043;-73
2022/11/23 01:59:50;;;;;;;10.80;10.10;;;;;;;-143.83;100.00;62900.06;4918900;29;20038;-73
2022/11/23 02:02:16;;;;;;;10.55;9.95;;;;;;;-143.83;100.00;62900.06;4924301;29;20391;-73
2022/11/23 02:04:45;;;;;;;10.35;9.85;;;;;;;-143.83;100.00;62900.06;4910212;29;20524;-73
2022/11/23 02:07:11;;;;;;;9.98;9.48;;;;;;;-143.83;100.00;62900.06;4909795;29;20028;-74
2022/11/23 02:09:37;;;;;;;10.73;10.15;;;;;;;-143.83;100.00;62900.06;4929617;29;20059;-74
2022/11/23 02:12:09;;;;;;;10.10;9.60;;;;;;;-143.83;100.00;62900.06;4907432;29;20039;-74
2022/11/23 02:14:35;;;;;;;9.93;9.43;;;;;;;-143.83;100.00;62900.06;4922666;29;20055;-73
2022/11/23 02:17:01;;;;;;;10.05;9.55;;;;;;;-143.83;100.00;62900.06;4927964;29;20059;-74
2022/11/23 02:19:56;;;;;;;9.77;9.30;;;;;;;-143.83;100.00;62900.06;4927192;29;20088;-73
2022/11/23 02:22:51;;;;;;;10.93;10.32;;;;;;;-143.83;100.00;62900.06;4929172;29;20390;-73
2022/11/23 02:25:27;;;;;;;10.30;9.80;;;;;;;-143.83;100.00;62900.06;4921896;29;20387;-73
2022/11/23 02:27:53;;;;;;;10.77;10.20;;;;;;;-143.83;100.00;62900.06;4924714;29;20032;-73
2022/11/23 02:30:20;;;;;;;11.10;10.50;;;;;;;-143.83;100.00;62900.06;4921179;29;21143;-73
2022/11/23 02:32:45;;;;;;;10.13;9.63;;;;;;;-143.83;100.00;62900.06;4924716;29;20487;-74
2022/11/23 02:35:11;;;;;;;10.20;9.70;;;;;;;-143.83;100.00;62900.06;4923395;29;20027;-73
2022/11/23 02:37:38;;;;;;;10.10;9.60;;;;;;;-143.83;100.00;62900.06;4927163;29;20028;-73
2022/11/23 02:40:15;;;;;;;9.60;9.20;;;;;;;-143.83;100.00;62900.06;4907331;29;20060;-72
2022/11/23 02:42:43;;;;;;;9.73;9.23;;;;;;;-143.83;100.00;62900.06;4933933;29;20114;-73
2022/11/23 02:45:23;;;;;;;9.68;9.23;;;;;;;-143.83;100.00;62900.06;4907937;29;20024;-72
2022/11/23 02:47:49;;;;;;;10.07;9.57;;;;;;;-143.83;100.00;62900.06;4906960;29;20035;-72
2022/11/23 02:50:15;;;;;;;9.75;9.27;;;;;;;-143.83;100.00;62900.06;4926744;29;20032;-73
2022/11/23 02:52:40;;;;;;;9.90;9.40;;;;;;;-143.83;100.00;62900.06;4928832;29;20119;-73
2022/11/23 02:55:07;;;;;;;9.27;8.88;;;;;;;-143.83;100.00;62900.06;4921954;29;20487;-73
2022/11/23 02:57:32;;;;;;;10.00;9.50;;;;;;;-143.83;100.00;62900.06;4924051;29;20039;-74
2022/11/23 02:59:58;;;;;;;10.50;9.95;;;;;;;-143.83;100.00;62900.06;4912574;29;20083;-74
2022/11/23 03:02:23;;;;;;;9.88;9.38;;;;;;;-143.83;100.00;62900.06;4927433;29;20423;-74
2022/11/23 03:04:49;;;;;;;9.00;8.60;;;;;;;-143.83;100.00;62900.06;4926129;29;20034;-73
2022/11/23 03:07:14;;;;;;;10.30;9.80;;;;;;;-143.83;100.00;62900.06;4932907;29;20492;-73
2022/11/23 03:09:40;;;;;;;9.98;9.48;;;;;;;-143.83;100.00;62900.06;4929808;29;20027;-73
2022/11/23 03:12:05;;;;;;;10.88;10.27;;;;;;;-143.83;100.00;62900.06;4909623;29;20086;-73
2022/11/23 03:14:31;;;;;;;10.55;9.98;;;;;;;-143.83;100.00;62900.06;4918802;29;20028;-73
2022/11/23 03:16:56;;;;;;;10.20;9.70;;;;;;;-143.83;100.00;62900.06;4912461;29;20050;-73
2022/11/23 03:19:22;;;;;;;10.70;10.10;;;;;;;-143.83;100.00;62900.06;4929418;29;20032;-74
2022/11/23 03:21:47;;;;;;;9.80;9.30;;;;;;;-143.83;100.00;62900.06;4914387;29;20027;-73
2022/11/23 03:24:13;;;;;;;9.95;9.50;;;;;;;-143.83;100.00;62900.06;4929948;29;20034;-74
2022/11/23 03:26:38;;;;;;;10.07;9.57;;;;;;;-143.83;100.00;62900.06;4928319;29;20459;-74
2022/11/23 03:29:04;;;;;;;10.02;9.52;;;;;;;-143.83;100.00;62900.06;4925562;29;20032;-73
2022/11/23 03:31:29;;;;;;;10.32;9.82;;;;;;;-143.83;100.00;62900.06;4933414;29;20019;-73
2022/11/23 03:33:55;;;;;;;10.90;10.30;;;;;;;-143.83;100.00;62900.06;4933587;29;20023;-73
2022/11/23 03:36:20;;;;;;;10.15;9.65;;;;;;;-143.83;100.00;62900.06;4927738;29;20142;-74
2022/11/23 03:38:46;;;;;;;9.80;9.30;;;;;;;-143.83;100.00;62900.06;4907261;29;20032;-73
2022/11/23 03:41:11;;;;;;;10.18;9.68;;;;;;;-143.83;100.00;62900.06;4917233;29;20487;-73
2022/11/23 03:43:36;;;;;;;9.30;8.90;;;;;;;-143.83;100.00;62900.06;4925941;29;20024;-73
2022/11/23 03:46:02;;;;;;;10.02;9.52;;;;;;;-143.83;100.00;62900.06;4916503;29;20483;-73
2022/11/23 03:48:27;;;;;;;10.05;9.55;;;;;;;-143.83;100.00;62900.06;4922283;29;20495;-73
2022/11/23 03:50:53;;;;;;;10.30;9.80;;;;;;;-143.83;100.00;62900.06;4927489;29;20062;-74
2022/11/23 03:53:18;;;;;;;9.88;9.38;;;;;;;-143.83;100.00;62900.06;4931339;29;20036;-74
2022/11/23 03:55:47;;;;;;;9.82;9.35;;;;;;;-143.83;100.00;62900.06;4923693;29;20055;-74
2022/11/23 03:58:13;;;;;;;9.30;8.90;;;;;;;-143.83;100.00;62900.06;4915956;29;20024;-73
2022/11/23 04:00:39;;;;;;;10.98;10.38;;;;;;;-143.83;100.00;62900.06;4926152;29;20031;-74
2022/11/23 04:03:04;;;;;;;10.02;9.52;;;;;;;-143.83;100.00;62900.06;4912161;29;20161;-74
2022/11/23 04:05:30;;;;;;;9.40;9.00;;;;;;;-143.83;100.00;62900.06;4923037;29;20070;-74
2022/11/23 04:07:55;;;;;;;9.77;9.30;;;;;;;-143.83;100.00;62900.06;4929607;29;20052;-74
2022/11/23 04:10:21;;;;;;;9.27;8.88;;;;;;;-143.83;100.00;62900.06;4930756;29;20063;-74
2022/11/23 04:12:51;;;;;;;9.45;9.05;;;;;;;-143.83;100.00;62900.06;4927218;29;20031;-74
2022/11/23 04:15:17;;;;;;;9.63;9.18;;;;;;;-143.83;100.00;62900.06;4923408;29;20098;-74
2022/11/23 04:17:42;;;;;;;9.52;9.13;;;;;;;-143.83;100.00;62900.06;4930712;29;20024;-74
2022/11/23 04:20:08;;;;;;;9.65;9.23;;;;;;;-143.83;100.00;62900.06;4909722;29;20060;-75
2022/11/23 04:22:33;;;;;;;10.20;9.70;;;;;;;-143.83;100.00;62900.06;4923444;29;20032;-74
2022/11/23 04:24:59;;;;;;;9.40;9.00;;;;;;;-143.83;100.00;62900.06;4927426;29;20134;-75
2022/11/23 04:27:25;;;;;;;9.98;9.48;;;;;;;-143.83;100.00;62900.06;4914372;29;20388;-76
2022/11/23 04:29:50;;;;;;;9.95;9.45;;;;;;;-143.83;100.00;62900.06;4892356;29;20059;-73
2022/11/23 04:32:16;;;;;;;10.45;9.95;;;;;;;-143.83;100.00;62900.06;4925593;29;20032;-73
2022/11/23 04:34:41;;;;;;;10.10;9.60;;;;;;;-143.83;100.00;62900.06;4924743;29;20123;-73
2022/11/23 04:37:08;;;;;;;9.95;9.45;;;;;;;-143.83;100.00;62900.06;4926010;29;20020;-72
2022/11/23 04:39:33;;;;;;;9.50;9.10;;;;;;;-143.83;100.00;62900.06;4928440;29;20040;-71
2022/11/23 04:42:00;;;;;;;9.90;9.40;;;;;;;-143.83;100.00;62900.06;4916343;29;20090;-72
2022/11/23 04:44:25;;;;;;;9.80;9.32;;;;;;;-143.83;100.00;62900.06;4929950;29;20039;-74
2022/11/23 04:46:51;;;;;;;9.85;9.35;;;;;;;-143.83;100.00;62900.06;4908384;29;20078;-74
2022/11/23 04:49:16;;;;;;;9.93;9.43;;;;;;;-143.83;100.00;62900.06;4924918;29;20031;-72
2022/11/23 04:51:43;;;;;;;10.27;9.77;;;;;;;-143.83;100.00;62900.06;4928929;29;20439;-72
2022/11/23 04:54:09;;;;;;;9.43;9.02;;;;;;;-143.83;100.00;62900.06;4927118;29;20035;-74
2022/11/23 04:56:34;;;;;;;9.80;9.30;;;;;;;-143.83;100.00;62900.06;4926594;29;20032;-72
2022/11/23 04:59:00;;;;;;;10.02;9.52;;;;;;;-143.83;100.00;62900.06;4924500;29;20054;-72
2022/11/23 05:01:25;;;;;;;10.10;9.60;;;;;;;-143.83;100.00;62900.06;4909783;29;20032;-67
2022/11/23 05:03:51;;;;;;;9.90;9.40;;;;;;;-143.83;100.00;62900.06;4927928;29;20134;-65
2022/11/23 05:06:16;;;;;;;10.55;10.05;;;;;;;-143.83;100.00;62900.06;4922522;29;20031;-65
2022/11/23 05:08:42;;;;;;;11.25;10.65;;;;;;;-143.83;100.00;62900.06;4924610;29;20036;-66
2022/11/23 05:11:08;;;;;;;10.32;9.82;;;;;;;-143.83;100.00;62900.06;4924474;29;20391;-65
2022/11/23 05:13:34;;;;;;;10.20;9.70;;;;;;;-143.83;100.00;62900.06;4923166;29;20031;-65
2022/11/23 05:15:59;;;;;;;9.90;9.40;;;;;;;-143.83;100.00;62900.06;4926755;29;20107;-65
2022/11/23 05:18:25;;;;;;;10.07;9.57;;;;;;;-143.83;100.00;62900.06;4930011;29;20460;-65
2022/11/23 05:20:51;;;;;;;9.48;9.07;;;;;;;-143.83;100.00;62900.06;4929555;29;20032;-66
2022/11/23 05:23:16;;;;;;;10.15;9.65;;;;;;;-143.83;100.00;62900.06;4925949;29;20075;-70
2022/11/23 05:25:41;;;;;;;9.80;9.30;;;;;;;-143.83;100.00;62900.06;4930925;29;20416;-71
2022/11/23 05:28:14;;;;;;;10.32;9.82;;;;;;;-143.83;100.00;62900.06;4908068;29;20129;-69
2022/11/23 05:30:42;;;;;;;9.93;9.43;;;;;;;-143.83;100.00;62900.06;4911040;29;20115;-67
2022/11/23 05:33:07;;;;;;;10.27;9.77;;;;;;;-143.83;100.00;62900.06;4904225;29;20029;-69
2022/11/23 05:35:34;;;;;;;9.82;9.32;;;;;;;-143.83;100.00;62900.06;4907265;29;20027;-70
2022/11/23 05:38:00;;;;;;;10.13;9.63;;;;;;;-143.83;100.00;62900.06;4908165;29;20036;-68
2022/11/23 05:40:25;;;;;;;9.70;9.30;;;;;;;-143.83;100.00;62900.06;4904844;29;20035;-71
2022/11/23 05:42:58;;;;;;;9.93;9.43;;;;;;;-143.83;100.00;62900.06;4904368;29;20024;-70
2022/11/23 05:45:24;;;;;;;9.60;9.20;;;;;;;-143.83;100.00;62900.06;4893413;29;20456;-71
2022/11/23 05:47:51;;;;;;;10.18;9.68;;;;;;;-143.83;100.00;62900.06;4893481;29;20028;-71
2022/11/23 05:50:17;;;;;;;10.25;9.75;;;;;;;-143.83;100.00;62900.06;4912734;29;20036;-72
2022/11/23 05:52:43;;;;;;;10.27;9.77;;;;;;;-143.83;100.00;62900.06;4910125;29;20483;-70
2022/11/23 05:55:08;;;;;;;10.07;9.57;;;;;;;-143.83;100.00;62900.06;4889528;29;20110;-72
2022/11/23 05:57:34;;;;;;;10.50;10.00;;;;;;;-143.83;100.00;62900.06;4906261;29;20416;-70
2022/11/23 05:59:59;;;;;;;10.20;9.70;;;;;;;-143.83;100.00;62900.06;4905056;29;20028;-70
2022/11/23 06:02:25;;;;;;;10.57;10.07;;;;;;;-143.83;100.00;62900.06;4907290;29;20037;-71
2022/11/23 06:04:50;;;;;;;10.25;9.75;;;;;;;-143.83;100.00;62900.06;4909821;29;20124;-71
2022/11/23 06:07:16;;;;;;;10.05;9.55;;;;;;;-143.83;100.00;62900.06;4908291;29;20032;-70
2022/11/23 06:09:41;;;;;;;10.52;10.02;;;;;;;-143.83;100.00;62900.06;4911421;29;20155;-71
2022/11/23 06:12:07;;;;;;;9.50;9.10;;;;;;;-143.83;100.00;62900.06;4894583;29;20036;-72
2022/11/23 06:14:32;;;;;;;10.25;9.75;;;;;;;-143.83;100.00;62900.06;4886370;29;20020;-72
2022/11/23 06:16:58;;;;;;;10.25;9.75;;;;;;;-143.83;100.00;62900.06;4912395;29;20066;-71
2022/11/23 06:19:23;;;;;;;9.73;9.23;;;;;;;-143.83;100.00;62900.06;4890945;29;20036;-70
2022/11/23 06:21:50;;;;;;;9.93;9.43;;;;;;;-143.83;100.00;62900.06;4912631;29;20023;-71
2022/11/23 06:24:16;;;;;;;9.90;9.40;;;;;;;-143.83;100.00;62900.06;4912782;29;20035;-69
2022/11/23 06:26:41;;;;;;;10.20;9.70;;;;;;;-143.83;100.00;62900.06;4905936;29;20048;-70
2022/11/23 06:29:07;;;;;;;10.00;9.50;;;;;;;-143.83;100.00;62900.06;4907153;29;20077;-70
2022/11/23 06:31:32;;;;;;;9.80;9.30;;;;;;;-143.83;100.00;62900.06;4907932;29;20024;-70
2022/11/23 06:33:57;;;;;;;10.82;10.25;;;;;;;-143.83;100.00;62900.06;4907357;29;20032;-76
2022/11/23 06:36:24;;;;;;;9.82;9.32;;;;;;;-143.83;100.00;62900.06;4910834;29;20044;-79
2022/11/23 06:38:49;;;;;;;9.93;9.43;;;;;;;-143.83;100.00;62900.06;4913559;29;20024;-76
2022/11/23 06:41:16;;;;;;;10.13;9.63;;;;;;;-143.83;100.00;62900.06;4902608;29;20119;-76
2022/11/23 06:43:42;;;;;;;10.18;9.68;;;;;;;-143.83;100.00;62900.06;4915310;29;20037;-76
2022/11/23 06:46:07;;;;;;;9.63;9.18;;;;;;;-143.83;100.00;62900.06;4915094;29;20031;-74
2022/11/23 06:48:33;;;;;;;9.82;9.32;;;;;;;-143.83;100.00;62900.06;4912197;29;20075;-77
2022/11/23 06:51:00;;;;;;;10.00;9.50;;;;;;;-143.83;100.00;62900.06;4914625;29;20495;-78
2022/11/23 06:53:27;;;;;;;10.90;10.35;;;;;;;-143.83;100.00;62900.06;4912665;29;20107;-77
2022/11/23 06:55:58;;;;;;;10.60;10.10;;;;;;;-143.83;100.00;62900.06;4912154;29;20151;-75
2022/11/23 06:58:24;;;;;;;11.30;10.70;;;;;;;-143.83;100.00;62900.06;4922030;29;20036;-76
2022/11/23 07:00:49;;;;;;;10.10;9.60;;;;;;;-143.83;100.00;62900.06;4921458;29;20024;-79
2022/11/23 07:03:19;;;;;;;10.40;9.90;;;;;;;-143.83;100.00;62900.06;4915933;29;20626;-75
2022/11/23 07:05:45;;;;;;;10.35;9.85;;;;;;;-143.83;100.00;62900.06;4911675;29;20028;-75
2022/11/23 07:08:10;;;;;;;10.65;10.15;;;;;;;-143.83;100.00;62900.06;4895117;29;20135;-75
2022/11/23 07:10:36;;;;;;;10.23;9.73;;;;;;;-143.83;100.00;62900.06;4908423;29;20031;-77
2022/11/23 07:13:06;;;;;;;10.60;10.10;;;;;;;-143.83;100.00;62900.06;4908726;29;20039;-73
2022/11/23 07:15:32;;;;;;;10.15;9.65;;;;;;;-143.83;100.00;62900.06;4893837;29;20020;-76
2022/11/23 07:17:58;;;;;;;9.65;9.25;;;;;;;-143.83;100.00;62900.06;4913633;29;20040;-75
2022/11/23 07:20:23;;;;;;;10.70;10.20;;;;;;;-143.83;100.00;62900.06;4909873;29;20040;-75
2022/11/23 07:23:09;;;;;;;9.57;9.18;;;;;;;-143.83;100.00;62900.06;4894245;29;20922;-76
2022/11/23 07:25:36;;;;;;;9.90;9.40;;;;;;;-143.83;100.00;62900.06;4915874;29;20134;-72
2022/11/23 07:28:03;;;;;;;9.82;9.32;;;;;;;-143.83;100.00;62900.06;4930763;29;20551;-73
2022/11/23 07:30:30;;;;;;;10.45;9.95;;;;;;;-143.83;100.00;62900.06;4928087;29;20067;-79
2022/11/23 07:33:00;;;;;;;9.48;9.05;;;;;;;-143.83;100.00;62900.06;4928108;29;20034;-77
2022/11/23 07:35:26;;;;;;;10.15;9.65;;;;;;;-143.83;100.00;62900.06;4930682;29;20080;-76
2022/11/23 07:37:52;;;;;;;9.75;9.27;;;;;;;-143.83;100.00;62900.06;4930073;29;20034;-76
2022/11/23 07:40:17;;;;;;;10.25;9.75;;;;;;;-143.83;100.00;62900.06;4931603;29;20024;-76
2022/11/23 07:42:43;;;;;;;10.57;10.07;;;;;;;-143.83;100.00;62900.06;4912255;29;20047;-77
2022/11/23 07:45:10;;;;;;;10.02;9.52;;;;;;;-143.83;100.00;62900.06;4925703;29;20167;-79
2022/11/23 07:47:36;;;;;;;10.80;10.27;;;;;;;-143.83;100.00;62900.06;4923786;29;20032;-77
2022/11/23 07:50:04;;;;;;;9.98;9.48;;;;;;;-143.83;100.00;62900.06;4928712;29;20444;-76
2022/11/23 07:52:30;;;;;;;9.48;9.07;;;;;;;-143.83;100.00;62900.06;4929202;29;20123;-75
2022/11/23 07:54:55;;;;;;;10.65;10.15;;;;;;;-143.83;100.00;62900.06;4926487;29;20106;-75
2022/11/23 07:57:21;;;;;;;10.15;9.65;;;;;;;-143.83;100.00;62900.06;4928810;29;20040;-75
2022/11/23 07:59:46;;;;;;;10.18;9.68;;;;;;;-143.83;100.00;62900.06;4908097;29;20122;-74
2022/11/23 08:02:13;;;;;;;9.48;9.07;;;;;;;-143.83;100.00;62900.06;4931463;29;20023;-75
2022/11/23 08:04:40;;;;;;;10.27;9.77;;;;;;;-143.83;100.00;62900.06;4914606;29;20047;-77
2022/11/23 08:07:06;;;;;;;11.35;10.75;;;;;;;-143.83;100.00;62900.06;4938269;29;20376;-77
2022/11/23 08:09:31;;;;;;;10.27;9.77;;;;;;;-143.83;100.00;62900.06;4915729;29;20046;-76
2022/11/23 08:11:57;;;;;;;9.55;9.15;;;;;;;-143.83;100.00;62900.06;4928982;29;20410;-77
2022/11/23 08:14:22;;;;;;;10.63;10.13;;;;;;;-143.83;100.00;62900.06;4927176;29;20035;-77
2022/11/23 08:16:49;;;;;;;10.18;9.68;;;;;;;-143.83;100.00;62900.06;4912402;29;20023;-77
2022/11/23 08:19:15;;;;;;;10.40;9.90;;;;;;;-143.83;100.00;62900.06;4923481;29;20522;-73
2022/11/23 08:21:42;;;;;;;10.18;9.68;;;;;;;-143.83;100.00;62900.06;4910273;29;20035;-76
2022/11/23 08:24:07;;;;;;;10.00;9.50;;;;;;;-143.83;100.00;62900.06;4927928;29;20547;-76
2022/11/23 08:26:33;;;;;;;9.80;9.32;;;;;;;-143.83;100.00;62900.06;4929158;29;20084;-76
2022/11/23 08:29:00;;;;;;;9.20;8.80;;;;;;;-143.83;100.00;62900.06;4910322;29;20032;-79
2022/11/23 08:31:25;;;;;;;10.70;10.15;;;;;;;-143.83;100.00;62900.06;4918616;29;20032;-76
2022/11/23 08:33:51;;;;;;;9.52;9.13;;;;;;;-143.83;100.00;62900.06;4927645;29;20055;-76
2022/11/23 08:36:19;;;;;;;9.98;9.48;;;;;;;-143.83;100.00;62900.06;4927456;29;20055;-78
2022/11/23 08:38:44;;;;;;;10.00;9.50;;;;;;;-143.83;100.00;62900.06;4930100;29;20421;-76
2022/11/23 08:41:10;;;;;;;9.52;9.13;;;;;;;-143.83;100.00;62900.06;4934141;29;20044;-75
2022/11/23 08:43:36;;;;;;;10.98;10.38;;;;;;;-143.83;100.00;62900.06;4924500;29;20529;-75
2022/11/23 08:46:03;;;;;;;9.55;9.15;;;;;;;-143.83;100.00;62900.06;4911347;29;20054;-77
2022/11/23 08:48:32;;;;;;;11.07;10.48;;;;;;;-143.83;100.00;62900.06;4929935;29;20032;-77
2022/11/23 08:51:01;;;;;;;9.90;9.40;;;;;;;-143.83;100.00;62900.06;4928248;29;20046;-79
2022/11/23 08:53:26;;;;;;;10.65;10.15;;;;;;;-143.83;100.00;62900.06;4895341;29;20044;-74
2022/11/23 08:55:51;;;;;;;9.95;9.45;;;;;;;-143.83;100.00;62900.06;4926965;29;20026;-74
2022/11/23 08:58:17;;;;;;;9.98;9.48;;;;;;;-143.83;100.00;62900.06;4922810;29;20097;-78
2022/11/23 09:00:42;;;;;;;10.18;9.68;;;;;;;-143.83;100.00;62900.06;4907094;29;20047;-76
2022/11/23 09:03:08;;;;;;;9.70;9.30;;;;;;;-143.83;100.00;62900.06;4925449;29;20110;-76
2022/11/23 09:05:39;;;;;;;10.13;9.63;;;;;;;-143.83;100.00;62900.06;4928057;29;20032;-80
2022/11/23 09:08:04;;;;;;;10.05;9.57;;;;;;;-143.83;100.00;62900.06;4930949;29;20398;-80
2022/11/23 09:10:30;;;;;;;9.90;9.40;;;;;;;-143.83;100.00;62900.06;4929070;29;20043;-79
2022/11/23 09:12:57;;;;;;;10.50;10.00;;;;;;;-143.83;100.00;62900.06;4908374;29;20110;-78
2022/11/23 09:15:22;;;;;;;10.40;9.90;;;;;;;-143.83;100.00;62900.06;4925551;29;20245;-78
2022/11/23 09:17:48;;;;;;;10.25;9.75;;;;;;;-143.83;100.00;62900.06;4928637;29;20540;-77
2022/11/23 09:20:13;;;;;;;9.75;9.30;;;;;;;-143.83;100.00;62900.06;4932345;29;20038;-77
2022/11/23 09:22:39;;;;;;;9.75;9.27;;;;;;;-143.83;100.00;62900.06;4930568;29;20027;-75
2022/11/23 09:25:05;;;;;;;9.85;9.35;;;;;;;-143.83;100.00;62900.06;4927577;29;20878;-75
2022/11/23 09:27:31;;;;;;;10.80;10.25;;;;;;;-143.83;100.00;62900.06;4924162;29;20039;-76
2022/11/23 09:29:57;;;;;;;10.48;9.98;;;;;;;-143.83;100.00;62900.06;4906757;29;20036;-76
2022/11/23 09:32:24;;;;;;;10.32;9.82;;;;;;;-143.83;100.00;62900.06;4926824;29;20028;-82
2022/11/23 09:34:49;;;;;;;10.02;9.55;;;;;;;-143.83;100.00;62900.06;4927853;29;20027;-76
2022/11/23 09:37:15;;;;;;;9.80;9.32;;;;;;;-143.83;100.00;62900.06;4909374;29;20032;-79
2022/11/23 09:39:40;;;;;;;10.48;9.98;;;;;;;-143.83;100.00;62900.06;4923507;29;20028;-79
2022/11/23 09:42:30;;;;;;;10.00;9.50;;;;;;;-143.83;100.00;62900.06;4936058;29;20092;-76
2022/11/23 09:45:17;;;;;;;10.30;9.80;;;;;;;-143.83;100.00;62900.06;4924489;29;20024;-78
2022/11/23 09:48:20;;;;;;;9.98;9.48;;;;;;;-143.83;100.00;62900.06;4923737;29;20992;-79
2022/11/23 09:50:51;;;;;;;9.55;9.15;;;;;;;-143.83;100.00;62900.06;4925601;29;20063;-80
2022/11/23 09:53:44;;;;;;;10.27;9.77;;;;;;;-143.83;100.00;62900.06;4921677;29;20059;-76
2022/11/23 09:56:20;;;;;;;9.75;9.32;;;;;;;-143.83;100.00;62900.06;4907128;29;20038;-78
2022/11/23 09:58:48;;;;;;;10.27;9.77;;;;;;;-143.83;100.00;62900.06;4920922;29;20032;-78
2022/11/23 10:01:15;;;;;;;10.18;9.68;;;;;;;-143.83;100.00;62900.06;4924690;29;20024;-78
2022/11/23 10:03:43;;;;;;;10.23;9.73;;;;;;;-143.83;100.00;62900.06;4907267;29;20110;-77
2022/11/23 10:06:19;;;;;;;10.10;9.60;;;;;;;-143.83;100.00;62900.06;4922191;29;20039;-73
2022/11/23 10:09:26;;;;;;;9.57;9.18;;;;;;;-143.83;100.00;62900.06;4903689;29;20692;-78
2022/11/23 10:12:24;;;;;;;9.80;9.30;;;;;;;-143.83;100.00;62900.06;4894119;29;20073;-78
2022/11/23 10:14:59;;;;;;;9.63;9.15;;;;;;;-143.83;100.00;62900.06;4926721;29;20080;-78
2022/11/23 10:17:24;;;;;;;;;;;;;;;-143.83;100.00;62900.06;4923345;29;20563;-76
2022/11/23 10:20:31;;;;;;;9.80;9.30;;;;;;;-143.83;100.00;62900.06;4924864;29;20047;-79
2022/11/23 10:22:59;;;;;;;9.30;8.90;;;;;;;-143.83;100.00;62900.06;4921823;29;20063;-77
2022/11/23 10:25:31;;;;;;;9.85;9.35;;;;;;;-143.83;100.00;62900.06;4903057;29;20534;-74
2022/11/23 10:28:01;;;;;;;10.48;9.98;;;;;;;-143.83;100.00;62900.06;4906765;29;20090;-75
2022/11/23 10:30:29;;;;;;;10.88;10.32;;;;;;;-143.83;100.00;62900.06;4923201;29;20079;-74
2022/11/23 10:33:00;;;;;;;10.38;9.88;;;;;;;-143.83;100.00;62900.06;4916957;29;20032;-74
2022/11/23 10:35:32;;;;;;;9.55;9.15;;;;;;;-143.83;100.00;62900.06;4906149;29;20060;-74
2022/11/23 10:38:17;;;;;;;9.60;9.20;;;;;;;-143.83;100.00;62900.06;4926602;29;20020;-73
2022/11/23 10:41:05;;;;;;;10.68;10.18;;;;;;;-143.83;100.00;62900.06;4924945;29;20028;-74
2022/11/23 10:44:06;;;;;;;10.07;9.57;;;;;;;-143.83;100.00;62900.06;4925174;29;20040;-74
2022/11/23 10:46:36;;;;;;;10.13;9.63;;;;;;;-143.83;100.00;62900.06;4904503;29;20511;-75
2022/11/23 10:49:21;;;;;;;9.40;9.00;;;;;;;-143.83;100.00;62900.06;4925026;29;20031;-73
2022/11/23 10:52:04;;;;;;;9.50;9.10;;;;;;;-143.83;100.00;62900.06;4922525;29;20036;-75
2022/11/23 10:54:38;;;;;;;9.70;9.27;;;;;;;-143.83;100.00;62900.06;4931034;29;20024;-78
2022/11/23 10:57:26;;;;;;;9.50;9.10;;;;;;;-143.83;100.00;62900.06;4919504;29;20047;-75
2022/11/23 10:59:59;;;;;;;9.50;9.10;;;;;;;-143.83;100.00;62900.06;4924901;29;20078;-75
2022/11/23 11:02:25;;;;;;;10.23;9.73;;;;;;;-143.83;100.00;62900.06;4909468;29;20031;-78
2022/11/23 11:05:25;;;;;;;9.75;9.27;;;;;;;-143.83;100.00;62900.06;4904660;29;20067;-78
2022/11/23 11:07:52;;;;;;;9.50;9.10;;;;;;;-143.83;100.00;62900.06;4923593;29;20047;-75
2022/11/23 11:10:57;;;;;;;9.60;9.20;;;;;;;-143.83;100.00;62900.06;4921722;29;20036;-75